createdAt,value
2018-02-19T01:04:07.356Z,101763.98
2018-02-19T01:06:35.786Z,101760.52
2018-02-19T01:09:04.208Z,101760.05
2018-02-19T01:11:33.370Z,101760.78
2018-02-19T01:14:01.844Z,101762.63
2018-02-19T01:16:30.234Z,101756.45
2018-02-19T01:18:58.642Z,101755.70
2018-02-19T01:21:27.034Z,101752.21
2018-02-19T01:23:55.427Z,101750.19
2018-02-19T01:26:24.632Z,101751.95
2018-02-19T01:28:53.057Z,101747.27
2018-02-19T01:31:21.447Z,101744.34
2018-02-19T01:33:50.649Z,101743.16
2018-02-19T01:36:19.822Z,101739.76
2018-02-19T01:38:48.249Z,101739.01
2018-02-19T01:41:17.634Z,101728.92
2018-02-19T01:43:46.819Z,101731.32
2018-02-19T01:46:15.241Z,101729.52
2018-02-19T01:48:43.653Z,101726.22
2018-02-19T01:51:12.092Z,101717.64
2018-02-19T01:53:41.297Z,101718.47
2018-02-19T01:56:09.704Z,101710.97
2018-02-19T01:58:38.107Z,101704.63
2018-02-19T02:01:06.498Z,101702.25
2018-02-19T02:03:34.936Z,101695.36
2018-02-19T02:06:03.359Z,101696.91
2018-02-19T02:08:31.758Z,101700.11
2018-02-19T02:11:00.924Z,101699.80
2018-02-19T02:13:29.316Z,101692.45
2018-02-19T02:15:57.801Z,101692.11
2018-02-19T02:18:26.193Z,101687.66
2018-02-19T02:20:54.592Z,101680.06
2018-02-19T02:23:23.048Z,101671.50
2018-02-19T02:25:51.507Z,101672.36
2018-02-19T02:28:19.888Z,101674.68
2018-02-19T02:30:48.280Z,101670.62
2018-02-19T02:33:16.685Z,101669.57
2018-02-19T02:35:45.871Z,101657.95
2018-02-19T02:38:14.279Z,101660.52
2018-02-19T02:40:42.831Z,101660.41
2018-02-19T02:43:11.294Z,101658.39
2018-02-19T02:45:39.690Z,101662.05
2018-02-19T02:48:08.125Z,101664.34
2018-02-19T02:50:36.515Z,101657.19
2018-02-19T02:53:04.927Z,101654.70
2018-02-19T02:55:33.331Z,101652.98
2018-02-19T02:58:03.185Z,101654.68
2018-02-19T03:00:31.597Z,101656.73
2018-02-19T03:03:00.094Z,101646.34
2018-02-19T03:05:28.508Z,101648.18
2018-02-19T03:07:56.905Z,101645.86
2018-02-19T03:10:25.308Z,101648.73
2018-02-19T03:12:53.754Z,101641.98
2018-02-19T03:15:22.168Z,101643.30
2018-02-19T03:17:50.586Z,101640.52
2018-02-19T03:20:19.725Z,101644.60
2018-02-19T03:22:48.154Z,101640.98
2018-02-19T03:25:16.539Z,101642.08
2018-02-19T03:27:44.946Z,101641.55
2018-02-19T03:30:13.341Z,101641.83
2018-02-19T03:32:41.723Z,101642.31
2018-02-19T03:35:10.206Z,101650.75
2018-02-19T03:37:38.607Z,101648.20
2018-02-19T03:40:07.025Z,101642.30
2018-02-19T03:42:35.419Z,101639.30
2018-02-19T03:45:04.581Z,101636.44
2018-02-19T03:47:32.940Z,101640.80
2018-02-19T03:50:01.354Z,101642.48
2018-02-19T03:52:30.502Z,101647.25
2018-02-19T03:54:58.905Z,101648.70
2018-02-19T03:57:27.287Z,101647.21
2018-02-19T03:59:55.724Z,101649.77
2018-02-19T04:02:24.888Z,101651.53
2018-02-19T04:04:53.371Z,101643.52
2018-02-19T04:07:21.809Z,101641.25
2018-02-19T04:09:50.271Z,101647.80
2018-02-19T04:12:18.660Z,101642.14
2018-02-19T04:14:47.040Z,101639.36
2018-02-19T04:17:15.565Z,101636.44
2018-02-19T04:19:43.945Z,101624.77
2018-02-19T04:22:12.402Z,101630.77
2018-02-19T04:24:40.892Z,101627.01
2018-02-19T04:27:09.375Z,101622.78
2018-02-19T04:29:37.805Z,101624.77
2018-02-19T04:32:06.986Z,101621.38
2018-02-19T04:34:35.399Z,101612.25
2018-02-19T04:37:03.895Z,101614.02
2018-02-19T04:39:32.415Z,101606.47
2018-02-19T04:42:00.853Z,101599.29
2018-02-19T04:44:35.363Z,101585.09
2018-02-19T04:47:05.271Z,101587.27
2018-02-19T04:49:33.647Z,101585.00
2018-02-19T04:52:02.063Z,101578.48
2018-02-19T04:54:31.271Z,101578.06
2018-02-19T04:56:59.791Z,101575.29
2018-02-19T04:59:28.184Z,101570.34
2018-02-19T05:01:56.583Z,101575.29
2018-02-19T05:04:24.988Z,101577.84
2018-02-19T05:06:53.440Z,101581.14
2018-02-19T05:09:21.840Z,101572.32
2018-02-19T05:11:50.301Z,101573.89
2018-02-19T05:14:18.700Z,101565.30
2018-02-19T05:16:47.072Z,101560.02
2018-02-19T05:19:15.457Z,101550.91
2018-02-19T05:21:43.851Z,101554.08
2018-02-19T05:24:12.241Z,101549.19
2018-02-19T05:26:40.615Z,101551.94
2018-02-19T05:29:09.020Z,101550.62
2018-02-19T05:31:37.411Z,101550.66
2018-02-19T05:34:05.972Z,101557.09
2018-02-19T05:36:35.127Z,101565.91
2018-02-19T05:39:03.599Z,101561.36
2018-02-19T05:41:32.255Z,101565.59
2018-02-19T05:44:01.472Z,101560.09
2018-02-19T05:46:30.014Z,101553.76
2018-02-19T05:48:58.429Z,101552.76
2018-02-19T05:51:26.799Z,101546.45
2018-02-19T05:53:55.198Z,101546.02
2018-02-19T05:56:23.628Z,101547.99
2018-02-19T05:58:52.014Z,101548.13
2018-02-19T06:01:20.394Z,101554.42
2018-02-19T06:03:48.791Z,101547.77
2018-02-19T06:06:17.944Z,101556.19
2018-02-19T06:08:46.338Z,101558.66
2018-02-19T06:11:14.719Z,101558.56
2018-02-19T06:13:43.201Z,101563.98
2018-02-19T06:16:11.806Z,101568.43
2018-02-19T06:18:40.988Z,101567.64
2018-02-19T06:21:09.377Z,101576.05
2018-02-19T06:23:37.786Z,101573.84
2018-02-19T06:26:06.961Z,101575.21
2018-02-19T06:28:35.384Z,101576.71
2018-02-19T06:31:04.004Z,101569.70
2018-02-19T06:33:32.383Z,101567.25
2018-02-19T06:36:00.770Z,101569.36
2018-02-19T06:38:29.208Z,101571.08
2018-02-19T06:40:57.709Z,101568.75
2018-02-19T06:43:26.174Z,101567.55
2018-02-19T06:45:54.567Z,101570.11
2018-02-19T06:48:22.962Z,101572.22
2018-02-19T06:50:51.359Z,101562.48
2018-02-19T06:53:19.797Z,101560.24
2018-02-19T06:55:48.264Z,101560.58
2018-02-19T06:58:16.653Z,101560.53
2018-02-19T07:00:45.063Z,101557.85
2018-02-19T07:03:13.441Z,101558.22
2018-02-19T07:05:41.808Z,101559.12
2018-02-19T07:08:10.262Z,101554.88
2018-02-19T07:10:38.664Z,101559.05
2018-02-19T07:13:07.076Z,101554.37
2018-02-19T07:15:35.455Z,101552.91
2018-02-19T07:18:03.857Z,101560.09
2018-02-19T07:20:33.002Z,101560.77
2018-02-19T07:23:01.391Z,101556.62
2018-02-19T07:25:29.795Z,101552.37
2018-02-19T07:27:58.209Z,101549.09
2018-02-19T07:30:26.608Z,101554.03
2018-02-19T07:32:55.005Z,101551.09
2018-02-19T07:35:23.404Z,101546.42
2018-02-19T07:37:51.809Z,101541.58
2018-02-19T07:40:20.208Z,101541.27
2018-02-19T07:45:46.607Z,101545.45
2018-02-19T07:48:15.024Z,101539.08
2018-02-19T07:50:43.415Z,101545.25
2018-02-19T07:53:11.803Z,101539.96
2018-02-19T07:55:40.173Z,101538.00
2018-02-19T07:58:08.548Z,101530.67
2018-02-19T08:00:36.962Z,101532.75
2018-02-19T08:03:06.591Z,101534.68
2018-02-19T08:05:34.980Z,101536.09
2018-02-19T08:08:03.368Z,101536.56
2018-02-19T08:10:31.794Z,101538.38
2018-02-19T08:13:00.215Z,101531.59
2018-02-19T08:15:28.607Z,101533.31
2018-02-19T08:17:57.475Z,101521.58
2018-02-19T08:20:25.850Z,101515.05
2018-02-19T08:22:54.399Z,101508.81
2018-02-19T08:25:22.926Z,101504.13
2018-02-19T08:27:51.303Z,101508.84
2018-02-19T08:30:20.110Z,101510.29
2018-02-19T08:32:48.743Z,101514.52
2018-02-19T08:35:17.883Z,101506.16
2018-02-19T08:37:46.284Z,101508.67
2018-02-19T08:40:14.665Z,101498.84
2018-02-19T08:45:41.042Z,101498.53
2018-02-19T08:48:09.459Z,101496.67
2018-02-19T08:50:38.634Z,101499.55
2018-02-19T08:53:07.015Z,101488.83
2018-02-19T08:55:35.487Z,101483.80
2018-02-19T08:58:03.888Z,101487.10
2018-02-19T09:00:32.286Z,101488.75
2018-02-19T09:03:01.766Z,101485.38
2018-02-19T09:05:30.181Z,101479.83
2018-02-19T09:07:59.402Z,101472.30
2018-02-19T09:10:27.767Z,101465.48
2018-02-19T09:12:56.261Z,101465.59
2018-02-19T09:15:24.654Z,101469.68
2018-02-19T09:17:53.065Z,101463.11
2018-02-19T09:20:21.458Z,101471.05
2018-02-19T09:22:49.870Z,101455.16
2018-02-19T09:25:18.245Z,101459.59
2018-02-19T09:27:46.660Z,101465.36
2018-02-19T09:30:15.157Z,101460.37
2018-02-19T09:32:43.567Z,101461.55
2018-02-19T09:35:12.023Z,101453.98
2018-02-19T09:37:40.416Z,101456.28
2018-02-19T09:40:08.804Z,101450.91
2018-02-19T09:42:37.995Z,101448.19
2018-02-19T09:45:06.394Z,101451.03
2018-02-19T09:47:35.613Z,101448.70
2018-02-19T09:50:04.864Z,101450.05
2018-02-19T09:52:33.244Z,101442.15
2018-02-19T09:55:01.638Z,101449.17
2018-02-19T09:57:30.059Z,101444.87
2018-02-19T09:59:58.429Z,101442.65
2018-02-19T10:02:27.799Z,101442.17
2018-02-19T10:04:56.203Z,101432.33
2018-02-19T10:07:25.344Z,101425.34
2018-02-19T10:09:53.763Z,101425.47
2018-02-19T10:12:22.309Z,101437.33
2018-02-19T10:14:50.708Z,101432.91
2018-02-19T10:17:19.089Z,101424.66
2018-02-19T10:19:47.467Z,101434.75
2018-02-19T10:22:16.053Z,101428.82
2018-02-19T10:24:44.482Z,101429.28
2018-02-19T10:27:13.288Z,101428.76
2018-02-19T10:29:41.732Z,101430.72
2018-02-19T10:32:10.107Z,101430.55
2018-02-19T10:34:38.528Z,101423.45
2018-02-19T10:37:06.922Z,101425.33
2018-02-19T10:39:35.406Z,101429.05
2018-02-19T10:42:03.798Z,101430.92
2018-02-19T10:44:32.179Z,101426.89
2018-02-19T10:47:00.706Z,101421.79
2018-02-19T10:49:29.096Z,101425.60
2018-02-19T10:51:59.319Z,101426.06
2018-02-19T10:54:28.486Z,101417.95
2018-02-19T10:56:56.883Z,101412.59
2018-02-19T10:59:26.199Z,101410.91
2018-02-19T11:01:55.387Z,101419.37
2018-02-19T11:04:23.775Z,101413.24
2018-02-19T11:06:52.206Z,101413.50
2018-02-19T11:09:20.721Z,101415.36
2018-02-19T11:11:49.149Z,101426.03
2018-02-19T11:14:17.561Z,101426.97
2018-02-19T11:16:46.009Z,101422.28
2018-02-19T11:19:14.443Z,101429.00
2018-02-19T11:21:43.790Z,101428.26
2018-02-19T11:24:12.964Z,101421.05
2018-02-19T11:26:41.410Z,101416.24
2018-02-19T11:29:09.892Z,101407.02
2018-02-19T11:31:38.339Z,101410.53
2018-02-19T11:34:07.495Z,101408.08
2018-02-19T11:36:35.954Z,101402.19
2018-02-19T11:39:04.605Z,101399.11
2018-02-19T11:41:33.805Z,101395.54
2018-02-19T11:44:02.973Z,101384.92
2018-02-19T11:46:31.386Z,101391.12
2018-02-19T11:49:00.686Z,101389.63
2018-02-19T11:51:29.887Z,101387.83
2018-02-19T11:53:59.051Z,101378.74
2018-02-19T11:56:27.454Z,101379.22
2018-02-19T11:58:55.943Z,101367.56
2018-02-19T12:01:25.105Z,101362.63
2018-02-19T12:03:53.575Z,101367.41
2018-02-19T12:06:21.961Z,101357.20
2018-02-19T12:08:50.451Z,101366.86
2018-02-19T12:11:18.864Z,101364.44
2018-02-19T12:13:47.264Z,101364.61
2018-02-19T12:16:16.675Z,101358.56
2018-02-19T12:18:45.179Z,101359.56
2018-02-19T12:21:13.641Z,101354.48
2018-02-19T12:23:42.944Z,101350.70
2018-02-19T12:26:12.148Z,101344.64
2018-02-19T12:28:40.619Z,101343.84
2018-02-19T12:31:08.998Z,101344.31
2018-02-19T12:33:38.705Z,101340.56
2018-02-19T12:36:07.918Z,101340.22
2018-02-19T12:38:36.390Z,101326.52
2018-02-19T12:41:05.656Z,101323.17
2018-02-19T12:43:34.056Z,101322.23
2018-02-19T12:46:02.584Z,101322.36
2018-02-19T12:48:31.316Z,101327.80
2018-02-19T12:51:00.011Z,101327.55
2018-02-19T12:53:28.779Z,101326.68
2018-02-19T12:55:57.675Z,101320.05
2018-02-19T12:58:26.317Z,101310.92
2018-02-19T13:00:55.161Z,101317.88
2018-02-19T13:03:24.532Z,101319.73
2018-02-19T13:05:52.921Z,101307.61
2018-02-19T13:08:22.306Z,101299.17
2018-02-19T13:10:50.928Z,101304.49
2018-02-19T13:13:19.773Z,101295.84
2018-02-19T13:15:48.621Z,101297.45
2018-02-19T13:18:17.214Z,101289.92
2018-02-19T13:20:46.903Z,101290.72
2018-02-19T13:23:15.343Z,101288.80
2018-02-19T13:25:44.783Z,101295.82
2018-02-19T13:28:13.475Z,101288.84
2018-02-19T13:30:42.240Z,101281.86
2018-02-19T13:33:13.820Z,101279.91
2018-02-19T13:35:42.271Z,101279.36
2018-02-19T13:38:10.678Z,101275.83
2018-02-19T13:40:40.172Z,101271.04
2018-02-19T13:43:08.712Z,101273.55
2018-02-19T13:45:37.185Z,101270.48
2018-02-19T13:48:06.478Z,101271.58
2018-02-19T13:50:35.050Z,101264.25
2018-02-19T13:53:03.612Z,101264.00
2018-02-19T13:55:32.009Z,101262.05
2018-02-19T13:58:00.506Z,101251.19
2018-02-19T14:00:28.907Z,101250.64
2018-02-19T14:02:57.964Z,101253.03
2018-02-19T14:05:26.442Z,101244.41
2018-02-19T14:07:54.832Z,101250.31
2018-02-19T14:10:24.344Z,101249.51
2018-02-19T14:12:52.950Z,101244.64
2018-02-19T14:15:21.711Z,101250.14
2018-02-19T14:17:50.163Z,101247.00
2018-02-19T14:20:18.764Z,101240.27
2018-02-19T14:22:48.014Z,101244.83
2018-02-19T14:25:16.636Z,101244.31
2018-02-19T14:27:45.238Z,101249.91
2018-02-19T14:30:13.965Z,101247.45
2018-02-19T14:32:43.853Z,101251.77
2018-02-19T14:35:12.292Z,101240.16
2018-02-19T14:37:40.712Z,101240.85
2018-02-19T14:40:09.469Z,101242.02
2018-02-19T14:42:37.858Z,101243.83
2018-02-19T14:45:07.016Z,101245.91
2018-02-19T14:47:35.404Z,101234.48
2018-02-19T14:50:04.088Z,101234.45
2018-02-19T14:52:39.175Z,101239.18
2018-02-19T14:55:07.819Z,101232.28
2018-02-19T14:57:36.399Z,101231.56
2018-02-19T15:00:04.848Z,101226.07
2018-02-19T15:02:33.350Z,101225.15
2018-02-19T15:05:01.753Z,101229.55
2018-02-19T15:07:30.147Z,101219.27
2018-02-19T15:09:58.583Z,101220.27
2018-02-19T15:12:27.000Z,101223.11
2018-02-19T15:14:55.530Z,101222.89
2018-02-19T15:17:24.134Z,101212.82
2018-02-19T15:19:52.548Z,101211.73
2018-02-19T15:22:20.983Z,101215.98
2018-02-19T15:24:49.516Z,101203.55
2018-02-19T15:27:17.955Z,101210.06
2018-02-19T15:29:46.364Z,101217.88
2018-02-19T15:32:14.797Z,101211.73
2018-02-19T15:34:44.059Z,101217.88
2018-02-19T15:37:12.637Z,101213.80
2018-02-19T15:39:41.203Z,101212.33
2018-02-19T15:42:09.650Z,101212.28
2018-02-19T15:44:38.819Z,101207.66
2018-02-19T15:47:08.146Z,101203.25
2018-02-19T15:49:36.958Z,101207.06
2018-02-19T15:52:06.134Z,101202.27
2018-02-19T15:54:34.956Z,101199.95
2018-02-19T15:57:03.358Z,101202.09
2018-02-19T15:59:31.812Z,101193.27
2018-02-19T16:02:00.940Z,101192.81
2018-02-19T16:04:29.418Z,101195.16
2018-02-19T16:06:57.824Z,101197.45
2018-02-19T16:09:26.237Z,101196.73
2018-02-19T16:11:54.712Z,101187.67
2018-02-19T16:14:23.883Z,101192.59
2018-02-19T16:16:52.322Z,101193.13
2018-02-19T16:19:21.510Z,101186.64
2018-02-19T16:21:51.279Z,101192.34
2018-02-19T16:24:19.822Z,101193.98
2018-02-19T16:26:48.240Z,101189.89
2018-02-19T16:29:16.821Z,101188.09
2018-02-19T16:31:45.445Z,101187.27
2018-02-19T16:34:14.944Z,101183.36
2018-02-19T16:36:43.812Z,101184.22
2018-02-19T16:39:13.165Z,101188.39
2018-02-19T16:41:41.739Z,101183.16
2018-02-19T16:44:10.394Z,101182.99
2018-02-19T16:46:52.832Z,101181.88
2018-02-19T16:49:21.316Z,101178.27
2018-02-19T16:51:50.712Z,101180.15
2018-02-19T16:54:19.382Z,101184.08
2018-02-19T16:56:47.941Z,101186.72
2018-02-19T16:59:16.851Z,101188.96
2018-02-19T17:01:45.419Z,101196.66
2018-02-19T17:04:14.070Z,101189.49
2018-02-19T17:06:44.193Z,101197.75
2018-02-19T17:09:12.725Z,101191.84
2018-02-19T17:11:43.051Z,101191.04
2018-02-19T17:14:12.864Z,101196.22
2018-02-19T17:16:42.412Z,101186.50
2018-02-19T17:19:10.917Z,101195.66
2018-02-19T17:21:40.145Z,101186.98
2018-02-19T17:24:08.922Z,101189.98
2018-02-19T17:26:37.709Z,101188.44
2018-02-19T17:29:06.791Z,101192.35
2018-02-19T17:31:36.031Z,101193.88
2018-02-19T17:34:04.473Z,101192.42
2018-02-19T17:36:33.642Z,101198.40
2018-02-19T17:39:02.052Z,101192.55
2018-02-19T17:41:31.228Z,101193.20
2018-02-19T17:44:01.224Z,101194.06
2018-02-19T17:46:30.436Z,101192.55
2018-02-19T17:48:58.847Z,101191.55
2018-02-19T17:51:28.013Z,101197.81
2018-02-19T17:53:56.445Z,101195.41
2018-02-19T17:56:25.604Z,101198.67
2018-02-19T17:58:54.055Z,101197.46
2018-02-19T18:01:22.492Z,101194.80
2018-02-19T18:03:51.699Z,101198.81
2018-02-19T18:06:20.871Z,101194.05
2018-02-19T18:08:49.317Z,101196.96
2018-02-19T18:11:17.719Z,101200.62
2018-02-19T18:13:46.258Z,101201.00
2018-02-19T18:16:15.424Z,101203.30
2018-02-19T18:18:43.902Z,101200.09
2018-02-19T18:21:12.499Z,101197.28
2018-02-19T18:23:41.137Z,101195.20
2018-02-19T18:26:09.554Z,101195.91
2018-02-19T18:28:38.087Z,101190.05
2018-02-19T18:31:06.689Z,101192.97
2018-02-19T18:33:35.086Z,101196.50
2018-02-19T18:36:03.508Z,101195.50
2018-02-19T18:38:32.718Z,101198.64
2018-02-19T18:41:01.867Z,101192.60
2018-02-19T18:43:31.097Z,101196.48
2018-02-19T18:45:59.460Z,101195.06
2018-02-19T18:48:27.880Z,101198.64
2018-02-19T18:50:57.080Z,101195.16
2018-02-19T18:53:27.195Z,101198.29
2018-02-19T18:55:56.345Z,101196.70
2018-02-19T18:58:24.819Z,101200.07
2018-02-19T19:00:53.242Z,101194.50
2018-02-19T19:03:21.630Z,101200.00
2018-02-19T19:05:50.832Z,101204.98
2018-02-19T19:08:37.174Z,101210.52
2018-02-19T19:11:05.603Z,101206.77
2018-02-19T19:13:33.998Z,101206.73
2018-02-19T19:16:02.467Z,101207.23
2018-02-19T19:18:32.059Z,101210.03
2018-02-19T19:21:00.479Z,101200.51
2018-02-19T19:23:29.695Z,101207.48
2018-02-19T19:25:58.114Z,101210.57
2018-02-19T19:28:37.652Z,101205.27
2018-02-19T19:31:16.589Z,101204.17
2018-02-19T19:33:45.255Z,101197.35
2018-02-19T19:36:13.720Z,101198.05
2018-02-19T19:38:42.166Z,101201.58
2018-02-19T19:41:10.639Z,101198.38
2018-02-19T19:43:39.078Z,101193.27
2018-02-19T19:46:07.586Z,101197.36
2018-02-19T19:48:36.008Z,101192.50
2018-02-19T19:51:05.208Z,101195.93
2018-02-19T19:53:34.500Z,101201.03
2018-02-19T19:56:03.848Z,101195.16
2018-02-19T19:58:32.250Z,101194.89
2018-02-19T20:01:00.721Z,101188.34
2018-02-19T20:03:29.414Z,101190.71
2018-02-19T20:06:09.571Z,101191.34
2018-02-19T20:08:38.423Z,101190.44
2018-02-19T20:11:07.288Z,101188.24
2018-02-19T20:13:37.822Z,101188.92
2018-02-19T20:16:07.868Z,101190.75
2018-02-19T20:18:37.238Z,101193.04
2018-02-19T20:21:06.655Z,101188.52
2018-02-19T20:23:38.783Z,101191.16
2018-02-19T20:26:08.784Z,101185.95
2018-02-19T20:28:38.732Z,101185.34
2018-02-19T20:31:08.835Z,101185.52
2018-02-19T20:33:37.332Z,101185.14
2018-02-19T20:36:05.903Z,101182.34
2018-02-19T20:38:34.749Z,101180.05
2018-02-19T20:41:03.187Z,101192.64
2018-02-19T20:43:31.667Z,101188.83
2018-02-19T20:46:00.120Z,101184.53
2018-02-19T20:48:28.859Z,101187.30
2018-02-19T20:50:59.349Z,101189.66
2018-02-19T20:53:27.868Z,101183.78
2018-02-19T20:55:56.340Z,101188.98
2018-02-19T20:58:25.103Z,101184.61
2018-02-19T21:00:53.537Z,101188.20
2018-02-19T21:03:31.877Z,101191.75
2018-02-19T21:06:00.315Z,101187.23
2018-02-19T21:08:39.387Z,101183.59
2018-02-19T21:11:08.937Z,101185.13
2018-02-19T21:16:30.144Z,101172.06
2018-02-19T21:18:59.616Z,101173.81
2018-02-19T21:21:28.863Z,101173.56
2018-02-19T21:23:57.265Z,101175.30
2018-02-19T21:26:25.676Z,101171.84
2018-02-19T21:28:54.867Z,101177.30
2018-02-19T21:31:23.256Z,101172.41
2018-02-19T21:33:51.687Z,101172.89
2018-02-19T21:36:20.112Z,101171.39
2018-02-19T21:38:49.327Z,101171.78
2018-02-19T21:41:18.530Z,101164.94
2018-02-19T21:43:47.730Z,101160.03
2018-02-19T21:46:17.052Z,101156.44
2018-02-19T21:48:45.502Z,101158.71
2018-02-19T21:51:14.071Z,101160.28
2018-02-19T21:53:42.475Z,101148.01
2018-02-19T21:56:11.667Z,101154.70
2018-02-19T21:58:40.077Z,101150.20
2018-02-19T22:01:09.446Z,101151.92
2018-02-19T22:03:37.976Z,101148.00
2018-02-19T22:06:06.380Z,101146.28
2018-02-19T22:08:34.998Z,101145.59
2018-02-19T22:11:03.408Z,101145.44
2018-02-19T22:13:31.805Z,101151.36
2018-02-19T22:16:00.346Z,101156.08
2018-02-19T22:18:28.781Z,101164.95
2018-02-19T22:20:57.216Z,101167.14
2018-02-19T22:23:25.613Z,101169.93
2018-02-19T22:25:54.064Z,101164.18
2018-02-19T22:28:22.520Z,101161.40
2018-02-19T22:30:50.899Z,101154.14
2018-02-19T22:33:19.430Z,101147.67
2018-02-19T22:35:48.607Z,101157.78
2018-02-19T22:38:17.022Z,101161.80
2018-02-19T22:40:46.206Z,101160.14
2018-02-19T22:43:15.384Z,101168.31
2018-02-19T22:45:43.838Z,101167.47
2018-02-19T22:48:13.110Z,101165.19
2018-02-19T22:50:41.487Z,101172.19
2018-02-19T22:53:09.911Z,101174.68
2018-02-19T22:55:38.323Z,101175.91
2018-02-19T22:58:06.701Z,101181.26
2018-02-19T23:00:35.173Z,101179.58
2018-02-19T23:03:03.587Z,101187.38
2018-02-19T23:05:32.967Z,101184.84
2018-02-19T23:08:01.342Z,101184.48
2018-02-19T23:10:29.751Z,101185.91
2018-02-19T23:12:58.987Z,101185.06
2018-02-19T23:15:27.386Z,101182.75
2018-02-19T23:17:55.791Z,101176.75
2018-02-19T23:20:24.217Z,101181.03
2018-02-19T23:22:52.610Z,101181.15
2018-02-19T23:25:21.014Z,101180.75
2018-02-19T23:27:49.470Z,101185.50
2018-02-19T23:30:17.863Z,101183.81
2018-02-19T23:32:46.287Z,101181.84
2018-02-19T23:35:15.485Z,101181.30
2018-02-19T23:37:43.883Z,101177.60
2018-02-19T23:40:12.335Z,101181.98
2018-02-19T23:42:41.515Z,101185.22
2018-02-19T23:45:10.486Z,101183.09
2018-02-19T23:47:38.913Z,101183.47
2018-02-19T23:50:08.125Z,101181.52
2018-02-19T23:52:37.302Z,101174.41
2018-02-19T23:55:05.687Z,101183.02
2018-02-19T23:57:34.220Z,101184.39
